createdAt,value
2022-11-18T00:01:23.693Z,17.67
2022-11-18T00:03:52.101Z,18.50
2022-11-18T00:06:28.174Z,23.40
2022-11-18T00:08:58.759Z,17.63
2022-11-18T00:11:48.051Z,20.97
2022-11-18T00:14:28.085Z,20.00
2022-11-18T00:17:03.532Z,21.00
2022-11-18T00:19:34.374Z,20.70
2022-11-18T00:22:02.299Z,24.00
2022-11-18T00:24:29.725Z,23.63
2022-11-18T00:26:58.901Z,26.03
2022-11-18T00:29:30.887Z,22.50
2022-11-18T00:32:00.964Z,23.73
2022-11-18T00:34:32.383Z,22.40
2022-11-18T00:36:59.198Z,23.10
2022-11-18T00:39:28.531Z,21.53
2022-11-18T00:42:16.219Z,22.23
2022-11-18T00:44:43.101Z,22.20
2022-11-18T00:47:12.042Z,26.33
2022-11-18T00:49:38.875Z,21.27
2022-11-18T00:52:08.111Z,22.73
2022-11-18T00:54:37.415Z,24.57
2022-11-18T00:57:06.821Z,25.27
2022-11-18T00:59:37.042Z,20.33
2022-11-18T01:02:06.051Z,27.17
2022-11-18T01:04:35.385Z,21.23
2022-11-18T01:07:03.565Z,29.20
2022-11-18T01:09:32.826Z,25.90
2022-11-18T01:12:21.906Z,19.43
2022-11-18T01:14:48.805Z,22.03
2022-11-18T01:17:18.123Z,23.70
2022-11-18T01:19:49.309Z,20.70
2022-11-18T01:22:16.134Z,19.57
2022-11-18T01:24:42.962Z,23.00
2022-11-18T01:27:09.801Z,19.40
2022-11-18T01:29:36.819Z,18.60
2022-11-18T01:34:50.674Z,18.33
2022-11-18T01:37:17.531Z,19.77
2022-11-18T01:39:46.910Z,19.67
2022-11-18T01:42:17.245Z,19.53
2022-11-18T01:45:10.878Z,24.83
2022-11-18T01:47:55.514Z,20.37
2022-11-18T01:50:23.551Z,20.60
2022-11-18T01:52:53.313Z,22.03
2022-11-18T01:55:26.487Z,22.80
2022-11-18T01:58:07.824Z,21.20
2022-11-18T02:00:35.308Z,22.63
2022-11-18T02:03:03.100Z,25.33
2022-11-18T02:05:34.466Z,19.27
2022-11-18T02:08:06.467Z,19.33
2022-11-18T02:10:33.455Z,20.63
2022-11-18T02:13:03.223Z,22.57
2022-11-18T02:15:43.911Z,20.53
2022-11-18T02:18:23.432Z,26.13
2022-11-18T02:20:56.410Z,21.63
2022-11-18T02:23:55.542Z,17.87
2022-11-18T02:26:43.903Z,13.80
2022-11-18T02:29:18.087Z,20.20
2022-11-18T02:32:07.714Z,18.47
2022-11-18T02:34:55.846Z,19.80
2022-11-18T02:37:33.097Z,20.33
2022-11-18T02:40:14.071Z,19.70
2022-11-18T02:42:45.836Z,19.57
2022-11-18T02:45:20.823Z,19.53
2022-11-18T02:47:52.344Z,22.50
2022-11-18T02:50:24.367Z,21.83
2022-11-18T02:52:57.520Z,20.67
2022-11-18T02:55:29.848Z,24.43
2022-11-18T02:57:58.429Z,27.37
2022-11-18T03:00:25.290Z,19.37
2022-11-18T03:02:52.241Z,19.73
2022-11-18T03:05:41.236Z,23.60
2022-11-18T03:08:17.295Z,21.23
2022-11-18T03:10:57.600Z,22.23
2022-11-18T03:13:33.876Z,20.80
2022-11-18T03:16:10.905Z,20.50
2022-11-18T03:18:51.211Z,24.53
2022-11-18T03:21:28.417Z,26.40
2022-11-18T03:24:22.985Z,23.80
2022-11-18T03:26:59.171Z,22.73
2022-11-18T03:29:33.809Z,23.10
2022-11-18T03:32:11.753Z,24.93
2022-11-18T03:34:47.532Z,30.83
2022-11-18T03:37:20.143Z,25.70
2022-11-18T03:39:54.016Z,27.20
2022-11-18T03:42:38.522Z,27.77
2022-11-18T03:45:29.333Z,24.17
2022-11-18T03:48:11.666Z,37.27
2022-11-18T03:50:50.573Z,33.83
2022-11-18T03:53:19.234Z,29.50
2022-11-18T03:55:52.362Z,28.40
2022-11-18T03:58:26.869Z,27.67
2022-11-18T04:01:03.215Z,28.30
2022-11-18T04:03:32.610Z,24.87
2022-11-18T04:06:33.260Z,25.20
2022-11-18T04:09:06.918Z,26.67
2022-11-18T04:12:02.139Z,30.27
2022-11-18T04:14:35.179Z,26.53
2022-11-18T04:17:10.102Z,29.00
2022-11-18T04:19:40.694Z,26.37
2022-11-18T04:22:07.948Z,29.00
2022-11-18T04:24:35.021Z,30.33
2022-11-18T04:27:05.571Z,34.83
2022-11-18T04:29:33.837Z,25.67
2022-11-18T04:32:06.790Z,26.13
2022-11-18T04:34:33.704Z,26.70
2022-11-18T04:37:05.189Z,33.53
2022-11-18T04:39:34.550Z,29.20
2022-11-18T04:42:03.856Z,30.13
2022-11-18T04:44:34.829Z,24.83
2022-11-18T04:47:06.303Z,29.93
2022-11-18T04:49:36.391Z,30.60
2022-11-18T04:52:04.136Z,30.67
2022-11-18T04:54:33.560Z,29.07
2022-11-18T04:57:03.841Z,30.70
2022-11-18T04:59:33.287Z,27.27
2022-11-18T05:02:02.964Z,26.97
2022-11-18T05:04:32.879Z,29.83
2022-11-18T05:07:04.921Z,34.10
2022-11-18T05:09:32.525Z,31.33
2022-11-18T05:12:19.104Z,28.50
2022-11-18T05:14:50.065Z,32.43
2022-11-18T05:17:18.333Z,27.13
2022-11-18T05:19:47.423Z,29.00
2022-11-18T05:22:17.800Z,28.77
2022-11-18T05:24:47.686Z,28.67
2022-11-18T05:27:15.320Z,30.73
2022-11-18T05:29:42.312Z,30.17
2022-11-18T05:32:09.625Z,31.20
2022-11-18T05:34:36.547Z,30.40
2022-11-18T05:37:03.575Z,29.93
2022-11-18T05:39:33.771Z,25.70
2022-11-18T05:42:21.979Z,23.80
2022-11-18T05:44:56.196Z,27.03
2022-11-18T05:47:25.156Z,27.70
2022-11-18T05:49:51.989Z,30.47
2022-11-18T05:52:18.813Z,29.33
2022-11-18T05:54:51.551Z,28.00
2022-11-18T05:57:20.717Z,35.53
2022-11-18T05:59:52.222Z,31.37
2022-11-18T06:02:23.870Z,26.40
2022-11-18T06:04:59.986Z,27.40
2022-11-18T06:07:41.068Z,26.27
2022-11-18T06:10:12.646Z,26.70
2022-11-18T06:12:43.940Z,28.97
2022-11-18T06:15:24.517Z,26.33
2022-11-18T06:18:17.947Z,28.87
2022-11-18T06:20:48.075Z,31.60
2022-11-18T06:23:15.336Z,27.90
2022-11-18T06:25:42.647Z,27.43
2022-11-18T06:28:10.927Z,28.03
2022-11-18T06:30:38.540Z,28.93
2022-11-18T06:33:05.392Z,26.23
2022-11-18T06:35:32.318Z,27.23
2022-11-18T06:38:01.303Z,29.20
2022-11-18T06:40:34.291Z,30.40
2022-11-18T06:43:27.960Z,31.30
2022-11-18T06:46:21.760Z,30.10
2022-11-18T06:48:51.726Z,26.50
2022-11-18T06:51:19.332Z,27.30
2022-11-18T06:53:46.574Z,28.57
2022-11-18T06:56:20.400Z,28.20
2022-11-18T06:58:52.351Z,30.00
2022-11-18T07:01:24.885Z,27.03
2022-11-18T07:03:52.315Z,29.30
2022-11-18T07:06:25.702Z,32.80
2022-11-18T07:08:53.061Z,36.60
2022-11-18T07:11:24.237Z,34.40
2022-11-18T07:13:51.621Z,30.70
2022-11-18T07:16:24.887Z,27.27
2022-11-18T07:18:54.966Z,35.53
2022-11-18T07:21:29.468Z,35.40
2022-11-18T07:23:59.764Z,31.57
2022-11-18T07:26:26.582Z,36.77
2022-11-18T07:28:58.836Z,55.77
2022-11-18T07:31:28.695Z,32.37
2022-11-18T07:33:55.940Z,32.00
2022-11-18T07:36:29.642Z,32.50
2022-11-18T07:39:04.060Z,35.23
2022-11-18T07:41:36.681Z,33.80
2022-11-18T07:44:07.445Z,33.13
2022-11-18T07:46:37.232Z,32.63
2022-11-18T07:49:07.658Z,36.40
2022-11-18T07:51:37.528Z,37.13
2022-11-18T07:54:13.479Z,39.73
2022-11-18T07:56:43.113Z,49.13
2022-11-18T07:59:10.002Z,40.33
2022-11-18T08:01:37.186Z,34.17
2022-11-18T08:04:10.890Z,44.77
2022-11-18T08:06:41.305Z,32.50
2022-11-18T08:09:13.207Z,38.77
2022-11-18T08:11:43.109Z,37.03
2022-11-18T08:14:10.024Z,35.27
2022-11-18T08:16:36.871Z,36.60
2022-11-18T08:19:03.845Z,35.70
2022-11-18T08:21:32.910Z,39.37
2022-11-18T08:23:59.737Z,36.00
2022-11-18T08:26:27.755Z,32.10
2022-11-18T08:28:54.670Z,35.00
2022-11-18T08:31:27.827Z,32.57
2022-11-18T08:34:09.497Z,35.20
2022-11-18T08:36:38.246Z,32.67
2022-11-18T08:39:08.450Z,31.43
2022-11-18T08:41:39.229Z,30.50
2022-11-18T08:44:07.447Z,31.17
2022-11-18T08:46:36.903Z,34.03
2022-11-18T08:49:06.225Z,30.10
2022-11-18T08:51:37.837Z,29.27
2022-11-18T08:54:07.177Z,32.20
2022-11-18T08:56:34.061Z,30.97
2022-11-18T08:59:08.838Z,31.17
2022-11-18T09:01:43.561Z,31.30
2022-11-18T09:04:11.401Z,28.73
2022-11-18T09:06:42.977Z,31.40
2022-11-18T09:09:09.852Z,30.07
2022-11-18T09:11:39.609Z,28.17
2022-11-18T09:16:56.459Z,25.70
2022-11-18T09:19:46.148Z,33.70
2022-11-18T09:22:12.827Z,29.40
2022-11-18T09:24:44.925Z,35.73
2022-11-18T09:27:17.383Z,33.50
2022-11-18T09:29:49.341Z,31.83
2022-11-18T09:32:16.281Z,34.33
2022-11-18T09:34:43.154Z,32.20
2022-11-18T09:37:12.535Z,27.63
2022-11-18T09:39:39.335Z,32.00
2022-11-18T09:42:12.587Z,36.07
2022-11-18T09:45:30.649Z,29.70
2022-11-18T09:48:02.903Z,26.90
2022-11-18T09:53:28.030Z,29.30
2022-11-18T09:56:10.835Z,29.53
2022-11-18T09:58:41.095Z,27.50
2022-11-18T10:01:17.158Z,27.77
2022-11-18T10:03:46.504Z,29.10
2022-11-18T10:06:29.334Z,30.40
2022-11-18T10:09:22.805Z,31.13
2022-11-18T10:12:21.654Z,25.00
2022-11-18T10:15:23.407Z,26.87
2022-11-18T10:22:36.992Z,27.10
2022-11-18T10:25:16.372Z,29.27
2022-11-18T10:27:49.220Z,28.83
2022-11-18T10:30:23.197Z,33.00
2022-11-18T10:33:03.110Z,25.80
2022-11-18T10:35:42.194Z,25.63
2022-11-18T10:38:15.062Z,25.50
2022-11-18T10:40:59.772Z,30.00
2022-11-18T10:43:48.716Z,26.20
2022-11-18T10:46:31.686Z,23.03
2022-11-18T10:49:10.830Z,23.17
2022-11-18T10:51:43.960Z,27.60
2022-11-18T10:54:24.750Z,21.00
2022-11-18T10:57:21.120Z,23.53
2022-11-18T10:59:59.049Z,20.77
2022-11-18T11:02:42.584Z,21.03
2022-11-18T11:05:35.848Z,21.70
2022-11-18T11:08:37.339Z,22.07
2022-11-18T11:11:04.788Z,21.60
2022-11-18T11:13:40.426Z,21.70
2022-11-18T11:16:10.478Z,20.13
2022-11-18T11:18:42.473Z,19.80
2022-11-18T11:21:17.612Z,22.30
2022-11-18T11:23:46.159Z,22.43
2022-11-18T11:29:45.984Z,22.53
2022-11-18T11:32:40.157Z,18.77
2022-11-18T11:35:23.684Z,14.47
2022-11-18T11:37:59.538Z,17.33
2022-11-18T11:40:56.765Z,14.23
2022-11-18T11:43:39.470Z,14.27
2022-11-18T11:47:11.414Z,19.40
2022-11-18T11:50:12.868Z,20.67
2022-11-18T11:53:00.670Z,21.57
2022-11-18T11:55:48.089Z,18.77
2022-11-18T11:58:50.915Z,16.97
2022-11-18T12:01:36.185Z,16.07
2022-11-18T12:04:33.212Z,14.87
2022-11-18T12:07:03.396Z,15.47
2022-11-18T12:09:33.287Z,18.97
2022-11-18T12:12:32.841Z,18.40
2022-11-18T12:15:27.230Z,15.23
2022-11-18T12:18:12.182Z,12.97
2022-11-18T12:20:42.425Z,12.33
2022-11-18T12:23:12.733Z,13.60
2022-11-18T12:25:51.304Z,14.93
2022-11-18T12:28:42.651Z,15.57
2022-11-18T12:31:18.550Z,15.47
2022-11-18T12:33:56.518Z,13.00
2022-11-18T12:36:35.000Z,13.50
2022-11-18T12:39:23.645Z,13.20
2022-11-18T12:42:14.619Z,15.00
2022-11-18T12:44:47.745Z,19.20
2022-11-18T12:47:43.896Z,17.63
2022-11-18T12:50:15.229Z,14.13
2022-11-18T12:52:42.029Z,12.10
2022-11-18T12:55:33.704Z,12.53
2022-11-18T12:58:03.614Z,12.27
2022-11-18T13:00:33.211Z,15.73
2022-11-18T13:03:01.970Z,11.23
2022-11-18T13:05:33.938Z,12.57
2022-11-18T13:08:30.534Z,12.87
2022-11-18T13:11:28.491Z,14.27
2022-11-18T13:14:14.321Z,21.53
2022-11-18T13:17:02.437Z,12.73
2022-11-18T13:19:31.739Z,12.80
2022-11-18T13:22:30.513Z,12.90
2022-11-18T13:24:59.801Z,10.27
2022-11-18T13:27:49.053Z,11.03
2022-11-18T13:30:17.303Z,13.23
2022-11-18T13:32:47.528Z,10.30
2022-11-18T13:35:23.586Z,11.83
2022-11-18T13:38:02.377Z,13.13
2022-11-18T13:41:04.494Z,14.00
2022-11-18T13:43:34.726Z,10.87
2022-11-18T13:46:18.741Z,13.20
2022-11-18T13:48:58.110Z,10.80
2022-11-18T13:51:28.043Z,12.90
2022-11-18T13:54:00.555Z,13.33
2022-11-18T13:56:34.892Z,14.53
2022-11-18T13:59:16.916Z,13.40
2022-11-18T14:01:45.697Z,13.13
2022-11-18T14:04:24.311Z,10.93
2022-11-18T14:06:51.201Z,11.43
2022-11-18T14:09:27.653Z,12.57
2022-11-18T14:12:20.250Z,13.27
2022-11-18T14:14:47.833Z,11.50
2022-11-18T14:17:23.198Z,12.70
2022-11-18T14:19:58.579Z,13.73
2022-11-18T14:22:33.476Z,18.60
2022-11-18T14:25:31.693Z,15.70
2022-11-18T14:28:18.762Z,18.10
2022-11-18T14:31:24.107Z,18.63
2022-11-18T14:34:15.354Z,19.90
2022-11-18T14:36:44.687Z,13.60
2022-11-18T14:39:29.045Z,18.57
2022-11-18T14:41:57.282Z,14.40
2022-11-18T14:44:30.612Z,18.37
2022-11-18T14:47:02.005Z,13.20
2022-11-18T14:49:34.023Z,12.90
2022-11-18T14:52:02.888Z,14.97
2022-11-18T14:54:30.244Z,15.57
2022-11-18T14:57:05.637Z,12.90
2022-11-18T14:59:32.741Z,13.00
2022-11-18T15:02:00.082Z,14.17
2022-11-18T15:04:27.415Z,14.70
2022-11-18T15:06:54.632Z,18.13
2022-11-18T15:09:21.724Z,12.83
2022-11-18T15:11:48.704Z,24.33
2022-11-18T15:14:15.989Z,20.73
2022-11-18T15:16:45.169Z,26.70
2022-11-18T15:19:16.239Z,16.30
2022-11-18T15:21:45.263Z,20.83
2022-11-18T15:24:14.818Z,16.27
2022-11-18T15:26:47.297Z,16.53
2022-11-18T15:29:24.919Z,16.73
2022-11-18T15:31:56.482Z,18.33
2022-11-18T15:34:23.565Z,17.43
2022-11-18T15:36:52.689Z,15.43
2022-11-18T15:39:22.154Z,19.57
2022-11-18T15:41:51.464Z,15.70
2022-11-18T15:44:18.697Z,17.23
2022-11-18T15:46:47.851Z,21.40
2022-11-18T15:49:16.440Z,15.97
2022-11-18T15:51:47.937Z,21.33
2022-11-18T15:54:19.887Z,19.33
2022-11-18T15:56:47.031Z,20.57
2022-11-18T15:59:19.497Z,19.93
2022-11-18T16:01:49.272Z,17.90
2022-11-18T16:04:19.558Z,14.00
2022-11-18T16:06:54.302Z,14.10
2022-11-18T16:09:21.722Z,21.90
2022-11-18T16:12:06.992Z,16.93
2022-11-18T16:14:38.076Z,19.23
2022-11-18T16:17:04.928Z,26.23
2022-11-18T16:19:33.546Z,26.20
2022-11-18T16:22:03.071Z,28.13
2022-11-18T16:24:30.008Z,26.70
2022-11-18T16:27:27.333Z,24.10
2022-11-18T16:29:53.917Z,20.10
2022-11-18T16:32:23.101Z,17.60
2022-11-18T16:34:50.448Z,16.00
2022-11-18T16:37:17.342Z,19.33
2022-11-18T16:39:44.636Z,21.40
2022-11-18T16:42:14.117Z,22.57
2022-11-18T16:44:44.197Z,24.93
2022-11-18T16:47:14.920Z,20.93
2022-11-18T16:49:47.785Z,19.83
2022-11-18T16:52:14.705Z,19.53
2022-11-18T16:54:45.686Z,22.50
2022-11-18T16:57:13.268Z,23.37
2022-11-18T16:59:40.429Z,22.27
2022-11-18T17:02:07.458Z,27.20
2022-11-18T17:04:36.299Z,33.27
2022-11-18T17:07:04.140Z,28.40
2022-11-18T17:09:31.271Z,30.13
2022-11-18T17:11:58.724Z,34.60
2022-11-18T17:14:26.423Z,30.40
2022-11-18T17:16:53.577Z,31.10
2022-11-18T17:19:23.157Z,29.63
2022-11-18T17:21:51.702Z,30.97
2022-11-18T17:24:21.788Z,34.97
2022-11-18T17:26:52.453Z,30.70
2022-11-18T17:29:20.301Z,27.33
2022-11-18T17:31:47.539Z,20.80
2022-11-18T17:34:16.179Z,24.83
2022-11-18T17:36:43.603Z,22.77
2022-11-18T17:39:13.265Z,18.63
2022-11-18T17:41:59.929Z,22.83
2022-11-18T17:44:29.142Z,23.33
2022-11-18T17:46:58.789Z,22.97
2022-11-18T17:49:28.225Z,25.13
2022-11-18T17:51:58.133Z,26.53
2022-11-18T17:54:25.403Z,18.30
2022-11-18T17:56:53.000Z,28.60
2022-11-18T17:59:23.185Z,21.27
2022-11-18T18:01:54.333Z,33.83
2022-11-18T18:04:25.068Z,30.37
2022-11-18T18:06:53.053Z,34.30
2022-11-18T18:09:28.574Z,45.00
2022-11-18T18:11:58.430Z,32.83
2022-11-18T18:14:25.309Z,23.47
2022-11-18T18:16:54.539Z,23.93
2022-11-18T18:19:23.042Z,20.00
2022-11-18T18:21:50.707Z,26.03
2022-11-18T18:24:19.658Z,26.70
2022-11-18T18:26:46.893Z,26.77
2022-11-18T18:29:14.135Z,30.00
2022-11-18T18:31:41.146Z,26.70
2022-11-18T18:34:08.296Z,24.67
2022-11-18T18:36:35.739Z,23.00
2022-11-18T18:39:03.382Z,26.90
2022-11-18T18:41:33.434Z,22.73
2022-11-18T18:44:01.340Z,25.50
2022-11-18T18:46:29.631Z,23.80
2022-11-18T18:49:08.679Z,22.70
2022-11-18T18:51:48.938Z,25.23
2022-11-18T18:54:19.266Z,24.33
2022-11-18T18:56:51.305Z,29.73
2022-11-18T18:59:23.281Z,24.10
2022-11-18T19:01:52.714Z,22.50
2022-11-18T19:04:22.183Z,25.30
2022-11-18T19:06:58.952Z,27.10
2022-11-18T19:09:29.551Z,29.13
2022-11-18T19:12:15.338Z,22.80
2022-11-18T19:14:44.512Z,27.70
2022-11-18T19:17:14.208Z,29.80
2022-11-18T19:20:01.336Z,19.23
2022-11-18T19:22:38.272Z,24.30
2022-11-18T19:25:05.692Z,18.50
2022-11-18T19:27:33.795Z,23.50
2022-11-18T19:30:00.732Z,22.70
2022-11-18T19:32:27.699Z,22.20
2022-11-18T19:34:54.575Z,21.13
2022-11-18T19:37:21.410Z,20.83
2022-11-18T19:39:48.311Z,25.53
2022-11-18T19:42:17.423Z,21.77
2022-11-18T19:44:46.696Z,21.10
2022-11-18T19:47:13.614Z,18.83
2022-11-18T19:49:40.500Z,16.80
2022-11-18T19:52:09.439Z,17.83
2022-11-18T19:54:36.473Z,11.93
2022-11-18T19:57:05.632Z,14.23
2022-11-18T19:59:32.585Z,12.07
2022-11-18T20:02:02.493Z,14.47
2022-11-18T20:04:29.632Z,13.30
2022-11-18T20:06:56.881Z,13.23
2022-11-18T20:09:28.864Z,11.43
2022-11-18T20:11:55.856Z,13.97
2022-11-18T20:14:23.070Z,8.00
2022-11-18T20:16:52.096Z,11.80
2022-11-18T20:19:22.175Z,17.53
2022-11-18T20:21:49.518Z,8.57
2022-11-18T20:24:18.649Z,14.40
2022-11-18T20:26:48.592Z,16.80
2022-11-18T20:29:18.302Z,14.77
2022-11-18T20:31:47.796Z,22.63
2022-11-18T20:34:15.009Z,16.27
2022-11-18T20:36:42.860Z,16.40
2022-11-18T20:39:17.851Z,15.03
2022-11-18T20:42:05.765Z,19.20
2022-11-18T20:44:38.388Z,14.27
2022-11-18T20:47:08.380Z,14.70
2022-11-18T20:49:35.308Z,16.40
2022-11-18T20:52:02.319Z,14.60
2022-11-18T20:54:29.210Z,15.50
2022-11-18T20:56:56.091Z,15.80
2022-11-18T20:59:26.234Z,15.67
2022-11-18T21:01:53.103Z,14.77
2022-11-18T21:04:22.177Z,19.20
2022-11-18T21:06:49.151Z,16.07
2022-11-18T21:09:17.001Z,15.93
2022-11-18T21:11:44.178Z,12.50
2022-11-18T21:14:23.479Z,14.03
2022-11-18T21:17:00.589Z,17.37
2022-11-18T21:19:28.832Z,16.37
2022-11-18T21:21:58.968Z,18.43
2022-11-18T21:24:32.163Z,12.13
2022-11-18T21:27:00.381Z,14.70
2022-11-18T21:29:30.852Z,15.83
2022-11-18T21:32:00.553Z,16.20
2022-11-18T21:34:27.804Z,18.90
2022-11-18T21:36:56.869Z,17.73
2022-11-18T21:39:24.927Z,17.77
2022-11-18T21:41:56.637Z,16.63
2022-11-18T21:44:25.166Z,17.70
2022-11-18T21:46:52.192Z,13.93
2022-11-18T21:49:19.455Z,18.17
2022-11-18T21:51:48.647Z,15.30
2022-11-18T21:54:18.081Z,24.03
2022-11-18T21:56:45.152Z,16.03
2022-11-18T21:59:12.045Z,23.53
2022-11-18T22:01:41.007Z,14.80
2022-11-18T22:04:07.916Z,18.10
2022-11-18T22:06:35.091Z,15.67
2022-11-18T22:09:07.089Z,18.23
2022-11-18T22:11:33.952Z,12.90
2022-11-18T22:14:00.797Z,16.67
2022-11-18T22:16:30.197Z,11.90
2022-11-18T22:19:01.427Z,12.33
2022-11-18T22:21:32.087Z,18.83
2022-11-18T22:24:03.700Z,15.67
2022-11-18T22:26:32.823Z,18.30
2022-11-18T22:28:59.663Z,18.17
2022-11-18T22:31:28.146Z,23.70
2022-11-18T22:33:56.338Z,23.97
2022-11-18T22:36:27.857Z,17.23
2022-11-18T22:38:55.781Z,23.80
2022-11-18T22:41:45.872Z,17.57
2022-11-18T22:44:15.319Z,16.00
2022-11-18T22:46:47.982Z,15.60
2022-11-18T22:49:17.880Z,15.57
2022-11-18T22:51:47.381Z,25.83
2022-11-18T22:57:06.230Z,16.13
2022-11-18T22:59:35.212Z,17.40
2022-11-18T23:02:02.222Z,16.97
2022-11-18T23:04:31.576Z,17.80
2022-11-18T23:06:58.578Z,16.77
2022-11-18T23:09:27.812Z,17.23
2022-11-18T23:12:18.575Z,19.50
2022-11-18T23:14:47.838Z,20.17
2022-11-18T23:17:17.278Z,20.27
2022-11-18T23:19:47.176Z,18.47
2022-11-18T23:22:14.467Z,22.90
2022-11-18T23:24:43.921Z,20.37
2022-11-18T23:27:10.863Z,21.17
2022-11-18T23:29:37.821Z,26.80
2022-11-18T23:32:08.295Z,23.53
2022-11-18T23:34:35.157Z,25.83
2022-11-18T23:37:04.472Z,26.07
2022-11-18T23:39:37.273Z,28.40
2022-11-18T23:42:05.213Z,22.33
2022-11-18T23:44:47.145Z,21.33
2022-11-18T23:47:14.121Z,30.30
2022-11-18T23:49:44.112Z,17.77
2022-11-18T23:52:11.077Z,19.60
2022-11-18T23:54:40.524Z,19.40
2022-11-18T23:57:07.439Z,21.27
2022-11-18T23:59:34.377Z,17.93
